sensor_id;sensor_type;location;lat;lon;timestamp;P1;durP1;ratioP1;P2;durP2;ratioP2
32094;SDS011;18608;53.688;10.748;2022-08-02T00:01:49;13.57;;;3.30;;
32094;SDS011;18608;53.688;10.748;2022-08-02T00:04:15;10.07;;;4.50;;
32094;SDS011;18608;53.688;10.748;2022-08-02T00:06:40;11.10;;;3.90;;
32094;SDS011;18608;53.688;10.748;2022-08-02T00:09:06;5.90;;;2.97;;
32094;SDS011;18608;53.688;10.748;2022-08-02T00:11:32;11.33;;;3.37;;
32094;SDS011;18608;53.688;10.748;2022-08-02T00:13:58;7.40;;;2.80;;
32094;SDS011;18608;53.688;10.748;2022-08-02T00:16:23;10.50;;;2.57;;
32094;SDS011;18608;53.688;10.748;2022-08-02T00:18:49;5.83;;;4.27;;
32094;SDS011;18608;53.688;10.748;2022-08-02T00:21:15;6.60;;;3.30;;
32094;SDS011;18608;53.688;10.748;2022-08-02T00:23:40;6.80;;;3.17;;
32094;SDS011;18608;53.688;10.748;2022-08-02T00:26:06;12.77;;;3.33;;
32094;SDS011;18608;53.688;10.748;2022-08-02T00:28:32;7.43;;;2.80;;
32094;SDS011;18608;53.688;10.748;2022-08-02T00:30:57;6.47;;;3.13;;
32094;SDS011;18608;53.688;10.748;2022-08-02T00:33:23;7.80;;;2.40;;
32094;SDS011;18608;53.688;10.748;2022-08-02T00:35:49;8.73;;;3.33;;
32094;SDS011;18608;53.688;10.748;2022-08-02T00:38:15;8.63;;;2.90;;
32094;SDS011;18608;53.688;10.748;2022-08-02T00:40:46;19.47;;;2.87;;
32094;SDS011;18608;53.688;10.748;2022-08-02T00:43:12;9.57;;;2.60;;
32094;SDS011;18608;53.688;10.748;2022-08-02T00:45:39;5.30;;;2.70;;
32094;SDS011;18608;53.688;10.748;2022-08-02T00:48:06;13.40;;;3.53;;
32094;SDS011;18608;53.688;10.748;2022-08-02T00:50:32;7.47;;;3.27;;
32094;SDS011;18608;53.688;10.748;2022-08-02T00:52:59;13.73;;;4.10;;
32094;SDS011;18608;53.688;10.748;2022-08-02T00:55:25;16.03;;;3.40;;
32094;SDS011;18608;53.688;10.748;2022-08-02T00:57:52;6.90;;;2.00;;
32094;SDS011;18608;53.688;10.748;2022-08-02T01:00:18;6.80;;;3.07;;
32094;SDS011;18608;53.688;10.748;2022-08-02T01:02:44;4.10;;;2.73;;
32094;SDS011;18608;53.688;10.748;2022-08-02T01:05:10;6.80;;;3.63;;
32094;SDS011;18608;53.688;10.748;2022-08-02T01:07:36;4.60;;;2.47;;
32094;SDS011;18608;53.688;10.748;2022-08-02T01:10:03;4.80;;;2.63;;
32094;SDS011;18608;53.688;10.748;2022-08-02T01:12:30;10.27;;;3.00;;
32094;SDS011;18608;53.688;10.748;2022-08-02T01:14:57;6.67;;;2.93;;
32094;SDS011;18608;53.688;10.748;2022-08-02T01:28:38;23.23;;;3.33;;
32094;SDS011;18608;53.688;10.748;2022-08-02T01:36:47;14.50;;;3.33;;
32094;SDS011;18608;53.688;10.748;2022-08-02T01:39:18;8.03;;;3.53;;
32094;SDS011;18608;53.688;10.748;2022-08-02T01:41:48;6.47;;;3.40;;
32094;SDS011;18608;53.688;10.748;2022-08-02T01:44:14;7.90;;;2.53;;
32094;SDS011;18608;53.688;10.748;2022-08-02T01:46:42;6.10;;;3.10;;
32094;SDS011;18608;53.688;10.748;2022-08-02T01:49:11;7.63;;;2.90;;
32094;SDS011;18608;53.688;10.748;2022-08-02T01:51:40;9.83;;;3.10;;
32094;SDS011;18608;53.688;10.748;2022-08-02T01:54:26;6.33;;;2.17;;
32094;SDS011;18608;53.688;10.748;2022-08-02T01:56:56;9.13;;;3.20;;
32094;SDS011;18608;53.688;10.748;2022-08-02T01:59:23;6.03;;;3.40;;
32094;SDS011;18608;53.688;10.748;2022-08-02T02:01:50;5.63;;;3.17;;
32094;SDS011;18608;53.688;10.748;2022-08-02T02:04:19;7.47;;;2.87;;
32094;SDS011;18608;53.688;10.748;2022-08-02T02:06:48;15.63;;;3.97;;
32094;SDS011;18608;53.688;10.748;2022-08-02T02:09:16;8.00;;;3.73;;
32094;SDS011;18608;53.688;10.748;2022-08-02T02:11:42;11.50;;;3.13;;
32094;SDS011;18608;53.688;10.748;2022-08-02T02:14:10;11.47;;;3.13;;
32094;SDS011;18608;53.688;10.748;2022-08-02T02:16:38;8.40;;;3.33;;
32094;SDS011;18608;53.688;10.748;2022-08-02T02:19:06;5.33;;;2.47;;
32094;SDS011;18608;53.688;10.748;2022-08-02T02:21:33;13.70;;;3.93;;
32094;SDS011;18608;53.688;10.748;2022-08-02T02:23:58;4.10;;;3.77;;
32094;SDS011;18608;53.688;10.748;2022-08-02T02:26:24;3.63;;;2.50;;
32094;SDS011;18608;53.688;10.748;2022-08-02T02:28:51;4.33;;;3.00;;
32094;SDS011;18608;53.688;10.748;2022-08-02T02:31:18;8.13;;;3.27;;
32094;SDS011;18608;53.688;10.748;2022-08-02T02:33:55;18.13;;;4.33;;
32094;SDS011;18608;53.688;10.748;2022-08-02T02:36:25;10.87;;;2.83;;
32094;SDS011;18608;53.688;10.748;2022-08-02T02:38:53;6.00;;;3.00;;
32094;SDS011;18608;53.688;10.748;2022-08-02T02:41:22;6.47;;;3.20;;
32094;SDS011;18608;53.688;10.748;2022-08-02T02:43:52;24.80;;;4.87;;
32094;SDS011;18608;53.688;10.748;2022-08-02T02:46:19;4.00;;;2.90;;
32094;SDS011;18608;53.688;10.748;2022-08-02T02:48:48;14.87;;;3.73;;
32094;SDS011;18608;53.688;10.748;2022-08-02T02:51:15;7.03;;;3.17;;
32094;SDS011;18608;53.688;10.748;2022-08-02T02:53:41;6.80;;;3.20;;
32094;SDS011;18608;53.688;10.748;2022-08-02T02:56:08;8.03;;;3.87;;
32094;SDS011;18608;53.688;10.748;2022-08-02T02:58:36;3.13;;;2.93;;
32094;SDS011;18608;53.688;10.748;2022-08-02T03:01:02;8.67;;;3.57;;
32094;SDS011;18608;53.688;10.748;2022-08-02T03:03:47;6.67;;;3.33;;
32094;SDS011;18608;53.688;10.748;2022-08-02T03:06:14;7.20;;;3.53;;
32094;SDS011;18608;53.688;10.748;2022-08-02T03:08:40;13.60;;;3.43;;
32094;SDS011;18608;53.688;10.748;2022-08-02T03:11:07;7.67;;;3.40;;
32094;SDS011;18608;53.688;10.748;2022-08-02T03:13:35;7.27;;;3.40;;
32094;SDS011;18608;53.688;10.748;2022-08-02T03:16:02;13.27;;;3.97;;
32094;SDS011;18608;53.688;10.748;2022-08-02T03:18:31;6.53;;;3.87;;
32094;SDS011;18608;53.688;10.748;2022-08-02T03:21:02;7.30;;;3.90;;
32094;SDS011;18608;53.688;10.748;2022-08-02T03:23:30;11.23;;;4.40;;
32094;SDS011;18608;53.688;10.748;2022-08-02T03:25:56;2.80;;;2.60;;
32094;SDS011;18608;53.688;10.748;2022-08-02T03:28:22;6.80;;;2.63;;
32094;SDS011;18608;53.688;10.748;2022-08-02T03:30:48;6.67;;;3.07;;
32094;SDS011;18608;53.688;10.748;2022-08-02T03:33:13;10.00;;;3.20;;
32094;SDS011;18608;53.688;10.748;2022-08-02T03:35:40;8.57;;;3.67;;
32094;SDS011;18608;53.688;10.748;2022-08-02T03:38:07;7.07;;;4.10;;
32094;SDS011;18608;53.688;10.748;2022-08-02T03:40:33;18.80;;;4.13;;
32094;SDS011;18608;53.688;10.748;2022-08-02T03:43:00;6.40;;;4.20;;
32094;SDS011;18608;53.688;10.748;2022-08-02T03:45:26;8.70;;;4.60;;
32094;SDS011;18608;53.688;10.748;2022-08-02T03:47:53;12.23;;;3.63;;
32094;SDS011;18608;53.688;10.748;2022-08-02T03:50:20;8.90;;;3.60;;
32094;SDS011;18608;53.688;10.748;2022-08-02T03:52:49;8.00;;;4.13;;
32094;SDS011;18608;53.688;10.748;2022-08-02T03:55:16;5.53;;;3.93;;
32094;SDS011;18608;53.688;10.748;2022-08-02T03:57:41;8.07;;;3.47;;
32094;SDS011;18608;53.688;10.748;2022-08-02T04:00:08;5.80;;;3.80;;
32094;SDS011;18608;53.688;10.748;2022-08-02T04:02:35;5.70;;;4.10;;
32094;SDS011;18608;53.688;10.748;2022-08-02T04:05:01;5.13;;;4.13;;
32094;SDS011;18608;53.688;10.748;2022-08-02T04:07:27;5.63;;;3.50;;
32094;SDS011;18608;53.688;10.748;2022-08-02T04:09:53;9.80;;;4.10;;
32094;SDS011;18608;53.688;10.748;2022-08-02T04:12:18;6.73;;;4.30;;
32094;SDS011;18608;53.688;10.748;2022-08-02T04:14:44;8.83;;;3.80;;
32094;SDS011;18608;53.688;10.748;2022-08-02T04:17:11;6.63;;;3.70;;
32094;SDS011;18608;53.688;10.748;2022-08-02T04:19:55;9.83;;;3.50;;
32094;SDS011;18608;53.688;10.748;2022-08-02T04:22:29;5.90;;;4.03;;
32094;SDS011;18608;53.688;10.748;2022-08-02T04:25:00;8.90;;;3.30;;
32094;SDS011;18608;53.688;10.748;2022-08-02T04:27:29;7.03;;;3.20;;
32094;SDS011;18608;53.688;10.748;2022-08-02T04:29:55;11.90;;;3.77;;
32094;SDS011;18608;53.688;10.748;2022-08-02T04:32:22;4.13;;;3.73;;
32094;SDS011;18608;53.688;10.748;2022-08-02T04:34:48;10.73;;;4.07;;
32094;SDS011;18608;53.688;10.748;2022-08-02T04:37:14;6.87;;;4.17;;
32094;SDS011;18608;53.688;10.748;2022-08-02T04:39:40;6.47;;;3.57;;
32094;SDS011;18608;53.688;10.748;2022-08-02T04:42:06;16.30;;;3.73;;
32094;SDS011;18608;53.688;10.748;2022-08-02T04:44:31;5.40;;;3.83;;
32094;SDS011;18608;53.688;10.748;2022-08-02T04:46:58;7.67;;;3.93;;
32094;SDS011;18608;53.688;10.748;2022-08-02T04:49:26;9.30;;;3.73;;
32094;SDS011;18608;53.688;10.748;2022-08-02T04:51:53;9.63;;;4.97;;
32094;SDS011;18608;53.688;10.748;2022-08-02T04:54:18;6.70;;;4.90;;
32094;SDS011;18608;53.688;10.748;2022-08-02T04:56:44;6.80;;;3.80;;
32094;SDS011;18608;53.688;10.748;2022-08-02T04:59:10;7.63;;;3.40;;
32094;SDS011;18608;53.688;10.748;2022-08-02T05:01:36;16.27;;;6.60;;
32094;SDS011;18608;53.688;10.748;2022-08-02T05:04:03;16.10;;;3.50;;
32094;SDS011;18608;53.688;10.748;2022-08-02T05:06:29;10.17;;;4.17;;
32094;SDS011;18608;53.688;10.748;2022-08-02T05:08:56;9.17;;;3.60;;
32094;SDS011;18608;53.688;10.748;2022-08-02T05:11:22;3.77;;;3.33;;
32094;SDS011;18608;53.688;10.748;2022-08-02T05:13:48;17.43;;;3.60;;
32094;SDS011;18608;53.688;10.748;2022-08-02T05:16:14;3.93;;;3.00;;
32094;SDS011;18608;53.688;10.748;2022-08-02T05:18:40;7.73;;;3.60;;
32094;SDS011;18608;53.688;10.748;2022-08-02T05:21:05;12.93;;;3.13;;
32094;SDS011;18608;53.688;10.748;2022-08-02T05:23:31;5.23;;;3.40;;
32094;SDS011;18608;53.688;10.748;2022-08-02T05:25:56;15.80;;;6.20;;
32094;SDS011;18608;53.688;10.748;2022-08-02T05:28:22;8.70;;;4.27;;
32094;SDS011;18608;53.688;10.748;2022-08-02T05:30:49;9.00;;;3.00;;
32094;SDS011;18608;53.688;10.748;2022-08-02T05:33:14;6.67;;;3.30;;
32094;SDS011;18608;53.688;10.748;2022-08-02T05:35:40;2.50;;;2.30;;
32094;SDS011;18608;53.688;10.748;2022-08-02T05:38:05;7.60;;;3.33;;
32094;SDS011;18608;53.688;10.748;2022-08-02T05:40:31;10.73;;;3.00;;
32094;SDS011;18608;53.688;10.748;2022-08-02T05:42:57;6.60;;;3.43;;
32094;SDS011;18608;53.688;10.748;2022-08-02T05:45:22;4.07;;;3.23;;
32094;SDS011;18608;53.688;10.748;2022-08-02T05:47:48;6.87;;;4.63;;
32094;SDS011;18608;53.688;10.748;2022-08-02T05:50:14;3.57;;;2.90;;
32094;SDS011;18608;53.688;10.748;2022-08-02T05:52:43;6.70;;;3.37;;
32094;SDS011;18608;53.688;10.748;2022-08-02T05:55:25;6.60;;;3.30;;
32094;SDS011;18608;53.688;10.748;2022-08-02T05:58:04;7.03;;;3.20;;
32094;SDS011;18608;53.688;10.748;2022-08-02T06:00:44;7.53;;;3.30;;
32094;SDS011;18608;53.688;10.748;2022-08-02T06:05:58;5.27;;;2.60;;
32094;SDS011;18608;53.688;10.748;2022-08-02T06:08:45;6.03;;;3.00;;
32094;SDS011;18608;53.688;10.748;2022-08-02T06:11:15;6.67;;;2.40;;
32094;SDS011;18608;53.688;10.748;2022-08-02T06:13:45;7.20;;;2.33;;
32094;SDS011;18608;53.688;10.748;2022-08-02T06:16:11;10.40;;;2.73;;
32094;SDS011;18608;53.688;10.748;2022-08-02T06:18:39;2.37;;;2.17;;
32094;SDS011;18608;53.688;10.748;2022-08-02T06:21:06;11.40;;;2.73;;
32094;SDS011;18608;53.688;10.748;2022-08-02T06:23:33;6.90;;;2.07;;
32094;SDS011;18608;53.688;10.748;2022-08-02T06:25:59;11.17;;;2.20;;
32094;SDS011;18608;53.688;10.748;2022-08-02T06:28:25;11.80;;;3.23;;
32094;SDS011;18608;53.688;10.748;2022-08-02T06:30:51;7.03;;;1.83;;
32094;SDS011;18608;53.688;10.748;2022-08-02T06:33:17;6.63;;;2.50;;
32094;SDS011;18608;53.688;10.748;2022-08-02T06:38:21;7.60;;;2.07;;
32094;SDS011;18608;53.688;10.748;2022-08-02T06:41:08;7.83;;;2.07;;
32094;SDS011;18608;53.688;10.748;2022-08-02T06:46:06;8.20;;;1.87;;
32094;SDS011;18608;53.688;10.748;2022-08-02T06:48:32;4.60;;;1.70;;
32094;SDS011;18608;53.688;10.748;2022-08-02T06:51:00;10.67;;;1.70;;
32094;SDS011;18608;53.688;10.748;2022-08-02T06:53:27;6.83;;;2.93;;
32094;SDS011;18608;53.688;10.748;2022-08-02T06:55:53;11.80;;;2.20;;
32094;SDS011;18608;53.688;10.748;2022-08-02T06:58:19;4.10;;;1.77;;
32094;SDS011;18608;53.688;10.748;2022-08-02T07:00:45;5.00;;;2.00;;
32094;SDS011;18608;53.688;10.748;2022-08-02T07:03:11;11.03;;;1.57;;
32094;SDS011;18608;53.688;10.748;2022-08-02T07:05:37;5.90;;;1.60;;
32094;SDS011;18608;53.688;10.748;2022-08-02T07:08:03;7.47;;;1.90;;
32094;SDS011;18608;53.688;10.748;2022-08-02T07:10:28;7.57;;;1.97;;
32094;SDS011;18608;53.688;10.748;2022-08-02T07:12:54;7.37;;;2.37;;
32094;SDS011;18608;53.688;10.748;2022-08-02T07:15:20;5.80;;;2.23;;
32094;SDS011;18608;53.688;10.748;2022-08-02T07:17:46;10.60;;;2.73;;
32094;SDS011;18608;53.688;10.748;2022-08-02T07:20:12;3.93;;;1.50;;
32094;SDS011;18608;53.688;10.748;2022-08-02T07:22:39;8.23;;;1.70;;
32094;SDS011;18608;53.688;10.748;2022-08-02T07:25:05;7.87;;;1.73;;
32094;SDS011;18608;53.688;10.748;2022-08-02T07:27:31;7.60;;;2.73;;
32094;SDS011;18608;53.688;10.748;2022-08-02T07:29:57;8.20;;;2.00;;
32094;SDS011;18608;53.688;10.748;2022-08-02T07:32:24;9.43;;;1.90;;
32094;SDS011;18608;53.688;10.748;2022-08-02T07:34:53;4.57;;;1.70;;
32094;SDS011;18608;53.688;10.748;2022-08-02T07:37:20;8.43;;;1.70;;
32094;SDS011;18608;53.688;10.748;2022-08-02T07:39:47;9.73;;;1.67;;
32094;SDS011;18608;53.688;10.748;2022-08-02T07:42:13;3.47;;;1.67;;
32094;SDS011;18608;53.688;10.748;2022-08-02T07:44:39;3.13;;;1.67;;
32094;SDS011;18608;53.688;10.748;2022-08-02T07:47:04;9.03;;;2.60;;
32094;SDS011;18608;53.688;10.748;2022-08-02T07:49:30;6.90;;;2.30;;
32094;SDS011;18608;53.688;10.748;2022-08-02T07:51:56;4.40;;;2.10;;
32094;SDS011;18608;53.688;10.748;2022-08-02T07:54:22;7.67;;;1.70;;
32094;SDS011;18608;53.688;10.748;2022-08-02T07:56:48;5.77;;;2.00;;
32094;SDS011;18608;53.688;10.748;2022-08-02T07:59:13;4.77;;;1.50;;
32094;SDS011;18608;53.688;10.748;2022-08-02T08:01:39;5.00;;;2.23;;
32094;SDS011;18608;53.688;10.748;2022-08-02T08:04:05;3.70;;;1.87;;
32094;SDS011;18608;53.688;10.748;2022-08-02T08:06:31;11.00;;;2.03;;
32094;SDS011;18608;53.688;10.748;2022-08-02T08:08:57;3.57;;;1.50;;
32094;SDS011;18608;53.688;10.748;2022-08-02T08:11:23;12.43;;;1.87;;
32094;SDS011;18608;53.688;10.748;2022-08-02T08:13:49;8.00;;;1.93;;
32094;SDS011;18608;53.688;10.748;2022-08-02T08:16:15;7.70;;;1.93;;
32094;SDS011;18608;53.688;10.748;2022-08-02T08:18:40;7.20;;;2.03;;
32094;SDS011;18608;53.688;10.748;2022-08-02T08:21:06;7.37;;;2.50;;
32094;SDS011;18608;53.688;10.748;2022-08-02T08:23:31;7.73;;;2.10;;
32094;SDS011;18608;53.688;10.748;2022-08-02T08:25:57;3.37;;;1.70;;
32094;SDS011;18608;53.688;10.748;2022-08-02T08:28:23;6.13;;;1.40;;
32094;SDS011;18608;53.688;10.748;2022-08-02T08:30:48;5.50;;;1.77;;
32094;SDS011;18608;53.688;10.748;2022-08-02T08:33:14;5.30;;;1.80;;
32094;SDS011;18608;53.688;10.748;2022-08-02T08:35:40;4.30;;;1.77;;
32094;SDS011;18608;53.688;10.748;2022-08-02T08:38:06;10.23;;;1.20;;
32094;SDS011;18608;53.688;10.748;2022-08-02T08:40:32;5.90;;;1.20;;
32094;SDS011;18608;53.688;10.748;2022-08-02T08:42:58;2.80;;;1.20;;
32094;SDS011;18608;53.688;10.748;2022-08-02T08:45:24;5.43;;;1.30;;
32094;SDS011;18608;53.688;10.748;2022-08-02T08:47:51;4.83;;;1.10;;
32094;SDS011;18608;53.688;10.748;2022-08-02T08:50:32;7.07;;;1.60;;
32094;SDS011;18608;53.688;10.748;2022-08-02T08:53:06;1.83;;;1.30;;
32094;SDS011;18608;53.688;10.748;2022-08-02T08:55:33;4.37;;;1.50;;
32094;SDS011;18608;53.688;10.748;2022-08-02T08:58:01;14.37;;;2.43;;
32094;SDS011;18608;53.688;10.748;2022-08-02T09:00:28;5.20;;;1.33;;
32094;SDS011;18608;53.688;10.748;2022-08-02T09:02:55;3.07;;;1.63;;
32094;SDS011;18608;53.688;10.748;2022-08-02T09:05:21;1.90;;;1.10;;
32094;SDS011;18608;53.688;10.748;2022-08-02T09:07:48;8.37;;;1.50;;
32094;SDS011;18608;53.688;10.748;2022-08-02T09:15:59;8.63;;;1.50;;
32094;SDS011;18608;53.688;10.748;2022-08-02T09:18:33;4.73;;;1.23;;
32094;SDS011;18608;53.688;10.748;2022-08-02T09:21:05;13.13;;;1.60;;
32094;SDS011;18608;53.688;10.748;2022-08-02T09:26:05;2.53;;;1.20;;
32094;SDS011;18608;53.688;10.748;2022-08-02T09:28:32;7.53;;;1.30;;
32094;SDS011;18608;53.688;10.748;2022-08-02T09:31:07;5.77;;;1.47;;
32094;SDS011;18608;53.688;10.748;2022-08-02T09:33:34;14.73;;;1.80;;
32094;SDS011;18608;53.688;10.748;2022-08-02T09:36:02;6.50;;;1.27;;
32094;SDS011;18608;53.688;10.748;2022-08-02T09:38:29;4.80;;;1.33;;
32094;SDS011;18608;53.688;10.748;2022-08-02T09:40:55;5.43;;;1.40;;
32094;SDS011;18608;53.688;10.748;2022-08-02T09:43:33;3.40;;;1.33;;
32094;SDS011;18608;53.688;10.748;2022-08-02T09:49:01;4.87;;;1.30;;
32094;SDS011;18608;53.688;10.748;2022-08-02T09:54:15;4.90;;;1.53;;
32094;SDS011;18608;53.688;10.748;2022-08-02T09:56:47;7.60;;;1.43;;
32094;SDS011;18608;53.688;10.748;2022-08-02T09:59:18;9.20;;;1.53;;
32094;SDS011;18608;53.688;10.748;2022-08-02T10:01:45;9.00;;;1.63;;
32094;SDS011;18608;53.688;10.748;2022-08-02T10:04:12;4.00;;;1.37;;
32094;SDS011;18608;53.688;10.748;2022-08-02T10:06:40;4.20;;;1.87;;
32094;SDS011;18608;53.688;10.748;2022-08-02T10:09:09;4.20;;;2.10;;
32094;SDS011;18608;53.688;10.748;2022-08-02T10:11:36;15.73;;;2.17;;
32094;SDS011;18608;53.688;10.748;2022-08-02T10:14:03;3.33;;;1.40;;
32094;SDS011;18608;53.688;10.748;2022-08-02T10:16:30;6.43;;;1.77;;
32094;SDS011;18608;53.688;10.748;2022-08-02T10:18:58;4.37;;;1.77;;
32094;SDS011;18608;53.688;10.748;2022-08-02T10:21:32;5.73;;;2.13;;
32094;SDS011;18608;53.688;10.748;2022-08-02T10:24:12;5.00;;;1.60;;
32094;SDS011;18608;53.688;10.748;2022-08-02T10:26:45;7.67;;;1.63;;
32094;SDS011;18608;53.688;10.748;2022-08-02T10:29:16;2.33;;;1.37;;
32094;SDS011;18608;53.688;10.748;2022-08-02T10:31:47;9.40;;;2.50;;
32094;SDS011;18608;53.688;10.748;2022-08-02T10:34:17;8.93;;;1.40;;
32094;SDS011;18608;53.688;10.748;2022-08-02T10:36:45;4.50;;;2.30;;
32094;SDS011;18608;53.688;10.748;2022-08-02T10:39:13;5.57;;;2.07;;
32094;SDS011;18608;53.688;10.748;2022-08-02T10:41:42;4.30;;;1.30;;
32094;SDS011;18608;53.688;10.748;2022-08-02T10:50:14;7.87;;;3.13;;
32094;SDS011;18608;53.688;10.748;2022-08-02T10:52:32;2.90;;;1.60;;
32094;SDS011;18608;53.688;10.748;2022-08-02T10:55:16;1.70;;;1.60;;
32094;SDS011;18608;53.688;10.748;2022-08-02T10:57:42;1.77;;;1.50;;
32094;SDS011;18608;53.688;10.748;2022-08-02T11:02:48;9.00;;;1.83;;
32094;SDS011;18608;53.688;10.748;2022-08-02T11:05:17;4.00;;;1.70;;
32094;SDS011;18608;53.688;10.748;2022-08-02T11:07:51;4.17;;;1.70;;
32094;SDS011;18608;53.688;10.748;2022-08-02T11:15:29;5.20;;;1.43;;
32094;SDS011;18608;53.688;10.748;2022-08-02T11:18:10;1.10;;;1.10;;
32094;SDS011;18608;53.688;10.748;2022-08-02T11:20:36;5.70;;;1.70;;
32094;SDS011;18608;53.688;10.748;2022-08-02T11:23:32;4.87;;;1.80;;
32094;SDS011;18608;53.688;10.748;2022-08-02T11:26:01;4.43;;;1.63;;
32094;SDS011;18608;53.688;10.748;2022-08-02T11:28:48;3.20;;;1.30;;
32094;SDS011;18608;53.688;10.748;2022-08-02T11:31:13;10.13;;;1.40;;
32094;SDS011;18608;53.688;10.748;2022-08-02T11:33:40;6.27;;;1.87;;
32094;SDS011;18608;53.688;10.748;2022-08-02T11:36:07;1.77;;;1.67;;
32094;SDS011;18608;53.688;10.748;2022-08-02T11:38:32;2.73;;;1.43;;
32094;SDS011;18608;53.688;10.748;2022-08-02T11:40:58;7.13;;;1.67;;
32094;SDS011;18608;53.688;10.748;2022-08-02T11:43:27;5.23;;;1.70;;
32094;SDS011;18608;53.688;10.748;2022-08-02T11:45:56;6.73;;;1.53;;
32094;SDS011;18608;53.688;10.748;2022-08-02T11:48:28;1.77;;;1.13;;
32094;SDS011;18608;53.688;10.748;2022-08-02T11:51:02;2.90;;;2.17;;
32094;SDS011;18608;53.688;10.748;2022-08-02T11:53:28;2.57;;;1.40;;
32094;SDS011;18608;53.688;10.748;2022-08-02T11:55:58;3.53;;;2.33;;
32094;SDS011;18608;53.688;10.748;2022-08-02T11:58:23;4.73;;;2.07;;
32094;SDS011;18608;53.688;10.748;2022-08-02T12:00:49;1.43;;;1.20;;
32094;SDS011;18608;53.688;10.748;2022-08-02T12:03:14;9.97;;;1.40;;
32094;SDS011;18608;53.688;10.748;2022-08-02T12:05:40;6.97;;;1.80;;
32094;SDS011;18608;53.688;10.748;2022-08-02T12:08:12;4.67;;;1.50;;
32094;SDS011;18608;53.688;10.748;2022-08-02T12:10:38;8.53;;;1.90;;
32094;SDS011;18608;53.688;10.748;2022-08-02T12:13:11;4.57;;;1.53;;
32094;SDS011;18608;53.688;10.748;2022-08-02T12:15:38;9.30;;;2.57;;
32094;SDS011;18608;53.688;10.748;2022-08-02T12:18:20;3.07;;;2.23;;
32094;SDS011;18608;53.688;10.748;2022-08-02T12:21:20;1.93;;;1.20;;
32094;SDS011;18608;53.688;10.748;2022-08-02T12:23:48;6.70;;;1.60;;
32094;SDS011;18608;53.688;10.748;2022-08-02T12:26:15;9.13;;;1.80;;
32094;SDS011;18608;53.688;10.748;2022-08-02T12:28:40;4.20;;;2.07;;
32094;SDS011;18608;53.688;10.748;2022-08-02T12:31:07;3.63;;;1.80;;
32094;SDS011;18608;53.688;10.748;2022-08-02T12:33:46;6.70;;;2.07;;
32094;SDS011;18608;53.688;10.748;2022-08-02T12:36:16;3.23;;;1.93;;
32094;SDS011;18608;53.688;10.748;2022-08-02T12:38:52;5.50;;;1.40;;
32094;SDS011;18608;53.688;10.748;2022-08-02T12:41:22;5.17;;;2.00;;
32094;SDS011;18608;53.688;10.748;2022-08-02T12:43:49;7.07;;;2.00;;
32094;SDS011;18608;53.688;10.748;2022-08-02T12:46:16;3.13;;;2.47;;
32094;SDS011;18608;53.688;10.748;2022-08-02T12:48:43;4.73;;;2.13;;
32094;SDS011;18608;53.688;10.748;2022-08-02T12:53:51;2.70;;;1.97;;
32094;SDS011;18608;53.688;10.748;2022-08-02T12:56:30;5.00;;;2.43;;
32094;SDS011;18608;53.688;10.748;2022-08-02T12:58:57;6.20;;;2.53;;
32094;SDS011;18608;53.688;10.748;2022-08-02T13:01:24;8.60;;;3.20;;
32094;SDS011;18608;53.688;10.748;2022-08-02T13:03:51;8.00;;;1.93;;
32094;SDS011;18608;53.688;10.748;2022-08-02T13:06:18;9.50;;;2.57;;
32094;SDS011;18608;53.688;10.748;2022-08-02T13:08:45;5.13;;;1.60;;
32094;SDS011;18608;53.688;10.748;2022-08-02T13:11:10;3.10;;;1.60;;
32094;SDS011;18608;53.688;10.748;2022-08-02T13:13:36;9.47;;;2.03;;
32094;SDS011;18608;53.688;10.748;2022-08-02T13:16:02;3.27;;;1.93;;
32094;SDS011;18608;53.688;10.748;2022-08-02T13:18:27;7.67;;;2.37;;
32094;SDS011;18608;53.688;10.748;2022-08-02T13:20:53;4.93;;;1.70;;
32094;SDS011;18608;53.688;10.748;2022-08-02T13:23:19;6.60;;;2.37;;
32094;SDS011;18608;53.688;10.748;2022-08-02T13:25:44;5.37;;;1.60;;
32094;SDS011;18608;53.688;10.748;2022-08-02T13:28:10;4.57;;;1.87;;
32094;SDS011;18608;53.688;10.748;2022-08-02T13:30:36;5.40;;;1.50;;
32094;SDS011;18608;53.688;10.748;2022-08-02T13:33:02;4.60;;;1.70;;
32094;SDS011;18608;53.688;10.748;2022-08-02T13:35:28;2.73;;;1.70;;
32094;SDS011;18608;53.688;10.748;2022-08-02T13:37:53;1.33;;;1.23;;
32094;SDS011;18608;53.688;10.748;2022-08-02T13:40:19;1.93;;;1.20;;
32094;SDS011;18608;53.688;10.748;2022-08-02T13:42:45;1.73;;;1.63;;
32094;SDS011;18608;53.688;10.748;2022-08-02T13:45:11;2.87;;;1.93;;
32094;SDS011;18608;53.688;10.748;2022-08-02T13:47:46;3.97;;;1.83;;
32094;SDS011;18608;53.688;10.748;2022-08-02T13:50:13;3.47;;;1.30;;
32094;SDS011;18608;53.688;10.748;2022-08-02T13:52:39;5.43;;;1.93;;
32094;SDS011;18608;53.688;10.748;2022-08-02T13:55:04;3.13;;;1.50;;
32094;SDS011;18608;53.688;10.748;2022-08-02T13:57:31;1.70;;;1.37;;
32094;SDS011;18608;53.688;10.748;2022-08-02T13:59:56;2.60;;;1.43;;
32094;SDS011;18608;53.688;10.748;2022-08-02T14:02:22;2.60;;;1.37;;
32094;SDS011;18608;53.688;10.748;2022-08-02T14:04:48;3.27;;;1.50;;
32094;SDS011;18608;53.688;10.748;2022-08-02T14:07:13;2.63;;;1.43;;
32094;SDS011;18608;53.688;10.748;2022-08-02T14:09:40;1.57;;;1.47;;
32094;SDS011;18608;53.688;10.748;2022-08-02T14:12:05;2.43;;;1.40;;
32094;SDS011;18608;53.688;10.748;2022-08-02T14:14:33;3.73;;;1.90;;
32094;SDS011;18608;53.688;10.748;2022-08-02T14:16:58;5.77;;;1.93;;
32094;SDS011;18608;53.688;10.748;2022-08-02T14:19:24;2.07;;;1.80;;
32094;SDS011;18608;53.688;10.748;2022-08-02T14:21:50;5.87;;;2.13;;
32094;SDS011;18608;53.688;10.748;2022-08-02T14:24:16;8.43;;;2.03;;
32094;SDS011;18608;53.688;10.748;2022-08-02T14:26:44;1.83;;;1.40;;
32094;SDS011;18608;53.688;10.748;2022-08-02T14:29:10;2.70;;;1.80;;
32094;SDS011;18608;53.688;10.748;2022-08-02T14:31:36;4.00;;;1.60;;
32094;SDS011;18608;53.688;10.748;2022-08-02T14:34:02;6.20;;;2.07;;
32094;SDS011;18608;53.688;10.748;2022-08-02T14:36:28;3.20;;;1.53;;
32094;SDS011;18608;53.688;10.748;2022-08-02T14:38:54;3.43;;;1.43;;
32094;SDS011;18608;53.688;10.748;2022-08-02T14:41:20;2.00;;;1.63;;
32094;SDS011;18608;53.688;10.748;2022-08-02T14:43:46;4.00;;;1.73;;
32094;SDS011;18608;53.688;10.748;2022-08-02T14:46:32;2.83;;;1.70;;
32094;SDS011;18608;53.688;10.748;2022-08-02T14:49:00;4.73;;;2.20;;
32094;SDS011;18608;53.688;10.748;2022-08-02T14:51:28;1.70;;;1.60;;
32094;SDS011;18608;53.688;10.748;2022-08-02T14:53:54;5.90;;;1.63;;
32094;SDS011;18608;53.688;10.748;2022-08-02T14:56:20;3.73;;;1.17;;
32094;SDS011;18608;53.688;10.748;2022-08-02T14:58:46;5.50;;;1.53;;
32094;SDS011;18608;53.688;10.748;2022-08-02T15:01:11;1.73;;;1.47;;
32094;SDS011;18608;53.688;10.748;2022-08-02T15:03:37;6.50;;;1.80;;
32094;SDS011;18608;53.688;10.748;2022-08-02T15:06:02;1.60;;;1.50;;
32094;SDS011;18608;53.688;10.748;2022-08-02T15:08:28;2.70;;;1.30;;
32094;SDS011;18608;53.688;10.748;2022-08-02T15:10:54;4.50;;;1.50;;
32094;SDS011;18608;53.688;10.748;2022-08-02T15:13:19;7.70;;;1.93;;
32094;SDS011;18608;53.688;10.748;2022-08-02T15:15:45;4.13;;;2.93;;
32094;SDS011;18608;53.688;10.748;2022-08-02T15:18:11;2.77;;;1.67;;
32094;SDS011;18608;53.688;10.748;2022-08-02T15:20:37;4.63;;;1.50;;
32094;SDS011;18608;53.688;10.748;2022-08-02T15:23:02;1.50;;;1.20;;
32094;SDS011;18608;53.688;10.748;2022-08-02T15:25:28;3.90;;;1.53;;
32094;SDS011;18608;53.688;10.748;2022-08-02T15:27:53;5.13;;;1.83;;
32094;SDS011;18608;53.688;10.748;2022-08-02T15:30:19;3.93;;;1.37;;
32094;SDS011;18608;53.688;10.748;2022-08-02T15:32:45;5.70;;;1.50;;